sensor_id;sensor_type;location;lat;lon;timestamp;P1;durP1;ratioP1;P2;durP2;ratioP2
14088;SDS011;7120;52.890;6.040;2022-12-04T00:01:05;41.40;;;24.83;;
14088;SDS011;7120;52.890;6.040;2022-12-04T00:03:32;41.67;;;26.40;;
14088;SDS011;7120;52.890;6.040;2022-12-04T00:06:08;39.20;;;24.70;;
14088;SDS011;7120;52.890;6.040;2022-12-04T00:08:36;38.90;;;23.73;;
14088;SDS011;7120;52.890;6.040;2022-12-04T00:11:03;40.93;;;25.90;;
14088;SDS011;7120;52.890;6.040;2022-12-04T00:13:29;41.97;;;25.63;;
14088;SDS011;7120;52.890;6.040;2022-12-04T00:15:55;41.57;;;26.50;;
14088;SDS011;7120;52.890;6.040;2022-12-04T00:18:20;39.03;;;26.37;;
14088;SDS011;7120;52.890;6.040;2022-12-04T00:20:45;41.53;;;26.20;;
14088;SDS011;7120;52.890;6.040;2022-12-04T00:23:11;38.57;;;25.10;;
14088;SDS011;7120;52.890;6.040;2022-12-04T00:25:37;41.33;;;24.43;;
14088;SDS011;7120;52.890;6.040;2022-12-04T00:28:02;40.07;;;25.73;;
14088;SDS011;7120;52.890;6.040;2022-12-04T00:30:29;42.83;;;26.43;;
14088;SDS011;7120;52.890;6.040;2022-12-04T00:32:55;42.43;;;26.07;;
14088;SDS011;7120;52.890;6.040;2022-12-04T00:35:20;39.37;;;25.30;;
14088;SDS011;7120;52.890;6.040;2022-12-04T00:37:46;40.37;;;25.73;;
14088;SDS011;7120;52.890;6.040;2022-12-04T00:40:11;40.83;;;27.33;;
14088;SDS011;7120;52.890;6.040;2022-12-04T00:42:37;37.00;;;24.13;;
14088;SDS011;7120;52.890;6.040;2022-12-04T00:45:02;41.77;;;25.43;;
14088;SDS011;7120;52.890;6.040;2022-12-04T00:47:28;43.13;;;24.07;;
14088;SDS011;7120;52.890;6.040;2022-12-04T00:49:53;40.23;;;26.00;;
14088;SDS011;7120;52.890;6.040;2022-12-04T00:52:19;39.20;;;24.70;;
14088;SDS011;7120;52.890;6.040;2022-12-04T00:54:44;40.00;;;25.03;;
14088;SDS011;7120;52.890;6.040;2022-12-04T00:57:09;41.73;;;26.63;;
14088;SDS011;7120;52.890;6.040;2022-12-04T00:59:35;39.20;;;25.30;;
14088;SDS011;7120;52.890;6.040;2022-12-04T01:02:01;42.77;;;25.47;;
14088;SDS011;7120;52.890;6.040;2022-12-04T01:04:26;45.50;;;26.40;;
14088;SDS011;7120;52.890;6.040;2022-12-04T01:06:51;42.30;;;26.20;;
14088;SDS011;7120;52.890;6.040;2022-12-04T01:09:17;40.97;;;24.77;;
14088;SDS011;7120;52.890;6.040;2022-12-04T01:11:42;43.00;;;27.63;;
14088;SDS011;7120;52.890;6.040;2022-12-04T01:14:08;45.97;;;26.67;;
14088;SDS011;7120;52.890;6.040;2022-12-04T01:16:35;43.30;;;26.67;;
14088;SDS011;7120;52.890;6.040;2022-12-04T01:19:03;44.33;;;27.43;;
14088;SDS011;7120;52.890;6.040;2022-12-04T01:21:33;42.10;;;25.80;;
14088;SDS011;7120;52.890;6.040;2022-12-04T01:24:00;42.90;;;27.53;;
14088;SDS011;7120;52.890;6.040;2022-12-04T01:26:26;44.50;;;25.43;;
14088;SDS011;7120;52.890;6.040;2022-12-04T01:28:51;44.27;;;28.30;;
14088;SDS011;7120;52.890;6.040;2022-12-04T01:31:18;39.97;;;25.60;;
14088;SDS011;7120;52.890;6.040;2022-12-04T01:33:45;49.10;;;27.47;;
14088;SDS011;7120;52.890;6.040;2022-12-04T01:36:12;41.67;;;26.37;;
14088;SDS011;7120;52.890;6.040;2022-12-04T01:38:39;40.50;;;26.50;;
14088;SDS011;7120;52.890;6.040;2022-12-04T01:41:06;42.93;;;25.53;;
14088;SDS011;7120;52.890;6.040;2022-12-04T01:43:33;44.03;;;25.67;;
14088;SDS011;7120;52.890;6.040;2022-12-04T01:46:00;41.60;;;26.07;;
14088;SDS011;7120;52.890;6.040;2022-12-04T01:51:00;48.00;;;26.20;;
14088;SDS011;7120;52.890;6.040;2022-12-04T01:53:30;47.13;;;27.50;;
14088;SDS011;7120;52.890;6.040;2022-12-04T01:55:57;44.77;;;27.30;;
14088;SDS011;7120;52.890;6.040;2022-12-04T01:58:24;46.43;;;27.37;;
14088;SDS011;7120;52.890;6.040;2022-12-04T02:00:53;43.67;;;25.73;;
14088;SDS011;7120;52.890;6.040;2022-12-04T02:03:22;41.73;;;26.63;;
14088;SDS011;7120;52.890;6.040;2022-12-04T02:05:47;44.33;;;26.33;;
14088;SDS011;7120;52.890;6.040;2022-12-04T02:08:12;43.07;;;26.80;;
14088;SDS011;7120;52.890;6.040;2022-12-04T02:10:48;43.43;;;27.47;;
14088;SDS011;7120;52.890;6.040;2022-12-04T02:16:08;42.87;;;27.10;;
14088;SDS011;7120;52.890;6.040;2022-12-04T02:18:40;46.60;;;27.67;;
14088;SDS011;7120;52.890;6.040;2022-12-04T02:21:13;41.40;;;26.27;;
14088;SDS011;7120;52.890;6.040;2022-12-04T02:23:58;39.83;;;25.20;;
14088;SDS011;7120;52.890;6.040;2022-12-04T02:26:33;43.40;;;27.20;;
14088;SDS011;7120;52.890;6.040;2022-12-04T02:36:59;46.40;;;27.73;;
14088;SDS011;7120;52.890;6.040;2022-12-04T02:39:33;47.03;;;29.23;;
14088;SDS011;7120;52.890;6.040;2022-12-04T02:44:47;44.23;;;28.23;;
14088;SDS011;7120;52.890;6.040;2022-12-04T02:47:18;47.40;;;27.57;;
14088;SDS011;7120;52.890;6.040;2022-12-04T02:49:48;43.07;;;27.80;;
14088;SDS011;7120;52.890;6.040;2022-12-04T02:52:17;44.10;;;27.00;;
14088;SDS011;7120;52.890;6.040;2022-12-04T02:54:52;45.87;;;27.83;;
14088;SDS011;7120;52.890;6.040;2022-12-04T02:57:23;44.23;;;27.00;;
14088;SDS011;7120;52.890;6.040;2022-12-04T02:59:53;46.33;;;28.93;;
14088;SDS011;7120;52.890;6.040;2022-12-04T03:02:22;46.03;;;29.53;;
14088;SDS011;7120;52.890;6.040;2022-12-04T03:04:52;44.83;;;27.80;;
14088;SDS011;7120;52.890;6.040;2022-12-04T03:07:26;48.20;;;29.23;;
14088;SDS011;7120;52.890;6.040;2022-12-04T03:10:18;43.03;;;27.73;;
14088;SDS011;7120;52.890;6.040;2022-12-04T03:12:53;47.87;;;28.93;;
14088;SDS011;7120;52.890;6.040;2022-12-04T03:15:28;44.33;;;28.00;;
14088;SDS011;7120;52.890;6.040;2022-12-04T03:20:33;45.80;;;28.27;;
14088;SDS011;7120;52.890;6.040;2022-12-04T03:23:05;43.93;;;29.07;;
14088;SDS011;7120;52.890;6.040;2022-12-04T03:25:39;42.43;;;27.77;;
14088;SDS011;7120;52.890;6.040;2022-12-04T03:28:17;42.17;;;28.00;;
14088;SDS011;7120;52.890;6.040;2022-12-04T03:30:52;47.50;;;29.33;;
14088;SDS011;7120;52.890;6.040;2022-12-04T03:33:27;44.87;;;28.07;;
14088;SDS011;7120;52.890;6.040;2022-12-04T03:36:05;45.90;;;28.23;;
14088;SDS011;7120;52.890;6.040;2022-12-04T03:38:43;45.40;;;29.03;;
14088;SDS011;7120;52.890;6.040;2022-12-04T03:46:26;47.23;;;28.77;;
14088;SDS011;7120;52.890;6.040;2022-12-04T03:51:28;48.53;;;31.90;;
14088;SDS011;7120;52.890;6.040;2022-12-04T03:54:17;48.87;;;29.07;;
14088;SDS011;7120;52.890;6.040;2022-12-04T03:56:50;47.80;;;29.97;;
14088;SDS011;7120;52.890;6.040;2022-12-04T03:59:21;44.43;;;29.23;;
14088;SDS011;7120;52.890;6.040;2022-12-04T04:01:51;43.63;;;29.30;;
14088;SDS011;7120;52.890;6.040;2022-12-04T04:04:22;45.93;;;29.50;;
14088;SDS011;7120;52.890;6.040;2022-12-04T04:07:08;45.33;;;29.40;;
14088;SDS011;7120;52.890;6.040;2022-12-04T04:09:37;48.90;;;29.00;;
14088;SDS011;7120;52.890;6.040;2022-12-04T04:12:09;47.83;;;28.83;;
14088;SDS011;7120;52.890;6.040;2022-12-04T04:17:30;46.47;;;28.33;;
14088;SDS011;7120;52.890;6.040;2022-12-04T04:20:23;46.47;;;29.30;;
14088;SDS011;7120;52.890;6.040;2022-12-04T04:23:11;51.43;;;31.53;;
14088;SDS011;7120;52.890;6.040;2022-12-04T04:26:00;46.93;;;28.80;;
14088;SDS011;7120;52.890;6.040;2022-12-04T04:28:34;49.77;;;31.93;;
14088;SDS011;7120;52.890;6.040;2022-12-04T04:31:18;48.23;;;30.80;;
14088;SDS011;7120;52.890;6.040;2022-12-04T04:33:49;50.27;;;30.40;;
14088;SDS011;7120;52.890;6.040;2022-12-04T04:36:23;50.67;;;31.47;;
14088;SDS011;7120;52.890;6.040;2022-12-04T04:39:06;46.30;;;29.80;;
14088;SDS011;7120;52.890;6.040;2022-12-04T04:41:49;54.70;;;32.40;;
14088;SDS011;7120;52.890;6.040;2022-12-04T04:46:56;48.97;;;31.93;;
14088;SDS011;7120;52.890;6.040;2022-12-04T04:49:27;46.27;;;30.73;;
14088;SDS011;7120;52.890;6.040;2022-12-04T04:51:56;46.87;;;30.20;;
14088;SDS011;7120;52.890;6.040;2022-12-04T04:54:23;50.37;;;31.43;;
14088;SDS011;7120;52.890;6.040;2022-12-04T04:56:50;49.87;;;33.63;;
14088;SDS011;7120;52.890;6.040;2022-12-04T04:59:15;50.50;;;30.10;;
14088;SDS011;7120;52.890;6.040;2022-12-04T05:01:42;51.43;;;31.03;;
14088;SDS011;7120;52.890;6.040;2022-12-04T05:04:09;50.70;;;30.13;;
14088;SDS011;7120;52.890;6.040;2022-12-04T05:06:35;48.10;;;29.37;;
14088;SDS011;7120;52.890;6.040;2022-12-04T05:09:01;50.63;;;29.80;;
14088;SDS011;7120;52.890;6.040;2022-12-04T05:11:26;47.43;;;30.93;;
14088;SDS011;7120;52.890;6.040;2022-12-04T05:13:52;52.90;;;32.00;;
14088;SDS011;7120;52.890;6.040;2022-12-04T05:16:17;50.00;;;32.43;;
14088;SDS011;7120;52.890;6.040;2022-12-04T05:18:43;49.93;;;31.50;;
14088;SDS011;7120;52.890;6.040;2022-12-04T05:21:28;53.77;;;30.27;;
14088;SDS011;7120;52.890;6.040;2022-12-04T05:23:54;48.30;;;29.63;;
14088;SDS011;7120;52.890;6.040;2022-12-04T05:26:19;49.30;;;29.67;;
14088;SDS011;7120;52.890;6.040;2022-12-04T05:28:44;54.00;;;33.00;;
14088;SDS011;7120;52.890;6.040;2022-12-04T05:31:10;51.20;;;30.30;;
14088;SDS011;7120;52.890;6.040;2022-12-04T05:33:35;53.87;;;34.53;;
14088;SDS011;7120;52.890;6.040;2022-12-04T05:36:04;50.03;;;30.43;;
14088;SDS011;7120;52.890;6.040;2022-12-04T05:38:32;45.57;;;29.20;;
14088;SDS011;7120;52.890;6.040;2022-12-04T05:40:58;49.03;;;30.27;;
14088;SDS011;7120;52.890;6.040;2022-12-04T05:43:24;50.23;;;30.33;;
14088;SDS011;7120;52.890;6.040;2022-12-04T05:45:50;56.20;;;33.60;;
14088;SDS011;7120;52.890;6.040;2022-12-04T05:48:16;52.73;;;31.87;;
14088;SDS011;7120;52.890;6.040;2022-12-04T05:50:41;54.87;;;32.80;;
14088;SDS011;7120;52.890;6.040;2022-12-04T05:53:06;59.00;;;32.73;;
14088;SDS011;7120;52.890;6.040;2022-12-04T05:55:32;52.03;;;34.60;;
14088;SDS011;7120;52.890;6.040;2022-12-04T05:57:58;51.37;;;32.03;;
14088;SDS011;7120;52.890;6.040;2022-12-04T06:00:23;55.27;;;33.20;;
14088;SDS011;7120;52.890;6.040;2022-12-04T06:02:49;56.43;;;32.73;;
14088;SDS011;7120;52.890;6.040;2022-12-04T06:05:14;51.23;;;33.17;;
14088;SDS011;7120;52.890;6.040;2022-12-04T06:07:40;51.93;;;33.67;;
14088;SDS011;7120;52.890;6.040;2022-12-04T06:10:05;51.73;;;33.83;;
14088;SDS011;7120;52.890;6.040;2022-12-04T06:12:31;48.93;;;33.00;;
14088;SDS011;7120;52.890;6.040;2022-12-04T06:14:56;48.47;;;31.20;;
14088;SDS011;7120;52.890;6.040;2022-12-04T06:17:22;50.73;;;33.60;;
14088;SDS011;7120;52.890;6.040;2022-12-04T06:19:47;48.03;;;31.77;;
14088;SDS011;7120;52.890;6.040;2022-12-04T06:22:13;51.93;;;33.27;;
14088;SDS011;7120;52.890;6.040;2022-12-04T06:24:38;50.30;;;33.30;;
14088;SDS011;7120;52.890;6.040;2022-12-04T06:27:04;48.83;;;32.20;;
14088;SDS011;7120;52.890;6.040;2022-12-04T06:29:29;50.77;;;31.60;;
14088;SDS011;7120;52.890;6.040;2022-12-04T06:31:55;50.07;;;30.73;;
14088;SDS011;7120;52.890;6.040;2022-12-04T06:34:20;52.30;;;33.77;;
14088;SDS011;7120;52.890;6.040;2022-12-04T06:36:46;46.43;;;29.30;;
14088;SDS011;7120;52.890;6.040;2022-12-04T06:39:11;48.47;;;30.90;;
14088;SDS011;7120;52.890;6.040;2022-12-04T06:41:36;46.87;;;32.00;;
14088;SDS011;7120;52.890;6.040;2022-12-04T06:44:02;50.43;;;32.73;;
14088;SDS011;7120;52.890;6.040;2022-12-04T06:46:28;49.30;;;31.07;;
14088;SDS011;7120;52.890;6.040;2022-12-04T06:48:56;48.03;;;29.27;;
14088;SDS011;7120;52.890;6.040;2022-12-04T06:51:23;45.23;;;29.10;;
14088;SDS011;7120;52.890;6.040;2022-12-04T06:53:51;47.33;;;29.87;;
14088;SDS011;7120;52.890;6.040;2022-12-04T06:56:18;47.60;;;30.60;;
14088;SDS011;7120;52.890;6.040;2022-12-04T06:58:46;47.40;;;30.47;;
14088;SDS011;7120;52.890;6.040;2022-12-04T07:01:13;50.43;;;30.37;;
14088;SDS011;7120;52.890;6.040;2022-12-04T07:03:41;47.07;;;30.30;;
14088;SDS011;7120;52.890;6.040;2022-12-04T07:06:13;49.00;;;31.03;;
14088;SDS011;7120;52.890;6.040;2022-12-04T07:08:41;50.77;;;31.63;;
14088;SDS011;7120;52.890;6.040;2022-12-04T07:11:08;49.87;;;31.43;;
14088;SDS011;7120;52.890;6.040;2022-12-04T07:13:34;46.40;;;30.20;;
14088;SDS011;7120;52.890;6.040;2022-12-04T07:16:03;49.17;;;28.93;;
14088;SDS011;7120;52.890;6.040;2022-12-04T07:18:30;49.20;;;30.60;;
14088;SDS011;7120;52.890;6.040;2022-12-04T07:20:56;48.40;;;31.07;;
14088;SDS011;7120;52.890;6.040;2022-12-04T07:23:22;45.93;;;29.67;;
14088;SDS011;7120;52.890;6.040;2022-12-04T07:25:47;48.23;;;31.73;;
14088;SDS011;7120;52.890;6.040;2022-12-04T07:28:13;47.70;;;29.23;;
14088;SDS011;7120;52.890;6.040;2022-12-04T07:30:38;50.57;;;31.50;;
14088;SDS011;7120;52.890;6.040;2022-12-04T07:33:04;50.37;;;30.37;;
14088;SDS011;7120;52.890;6.040;2022-12-04T07:35:29;45.20;;;29.13;;
14088;SDS011;7120;52.890;6.040;2022-12-04T07:37:55;47.30;;;29.10;;
14088;SDS011;7120;52.890;6.040;2022-12-04T07:40:21;47.30;;;31.57;;
14088;SDS011;7120;52.890;6.040;2022-12-04T07:42:46;49.50;;;29.43;;
14088;SDS011;7120;52.890;6.040;2022-12-04T07:45:12;50.63;;;30.30;;
14088;SDS011;7120;52.890;6.040;2022-12-04T07:47:37;46.03;;;30.20;;
14088;SDS011;7120;52.890;6.040;2022-12-04T07:50:03;50.33;;;32.20;;
14088;SDS011;7120;52.890;6.040;2022-12-04T07:52:29;48.13;;;30.97;;
14088;SDS011;7120;52.890;6.040;2022-12-04T07:54:55;52.07;;;31.57;;
14088;SDS011;7120;52.890;6.040;2022-12-04T07:57:20;52.53;;;33.47;;
14088;SDS011;7120;52.890;6.040;2022-12-04T07:59:45;47.97;;;29.43;;
14088;SDS011;7120;52.890;6.040;2022-12-04T08:02:11;48.03;;;31.17;;
14088;SDS011;7120;52.890;6.040;2022-12-04T08:04:37;47.50;;;30.00;;
14088;SDS011;7120;52.890;6.040;2022-12-04T08:07:03;48.53;;;31.43;;
14088;SDS011;7120;52.890;6.040;2022-12-04T08:09:28;49.30;;;29.67;;
14088;SDS011;7120;52.890;6.040;2022-12-04T08:11:53;49.37;;;31.10;;
14088;SDS011;7120;52.890;6.040;2022-12-04T08:14:19;46.93;;;29.37;;
14088;SDS011;7120;52.890;6.040;2022-12-04T08:16:44;54.90;;;33.13;;
14088;SDS011;7120;52.890;6.040;2022-12-04T08:19:12;53.47;;;31.20;;
14088;SDS011;7120;52.890;6.040;2022-12-04T08:21:38;53.70;;;31.57;;
14088;SDS011;7120;52.890;6.040;2022-12-04T08:24:03;55.23;;;33.20;;
14088;SDS011;7120;52.890;6.040;2022-12-04T08:26:29;49.57;;;31.53;;
14088;SDS011;7120;52.890;6.040;2022-12-04T08:28:55;53.90;;;31.50;;
14088;SDS011;7120;52.890;6.040;2022-12-04T08:31:25;53.47;;;33.47;;
14088;SDS011;7120;52.890;6.040;2022-12-04T08:33:55;54.10;;;32.40;;
14088;SDS011;7120;52.890;6.040;2022-12-04T08:36:21;52.70;;;34.00;;
14088;SDS011;7120;52.890;6.040;2022-12-04T08:38:47;55.60;;;33.70;;
14088;SDS011;7120;52.890;6.040;2022-12-04T08:41:13;50.87;;;31.70;;
14088;SDS011;7120;52.890;6.040;2022-12-04T08:43:40;52.43;;;31.60;;
14088;SDS011;7120;52.890;6.040;2022-12-04T08:46:06;53.67;;;32.43;;
14088;SDS011;7120;52.890;6.040;2022-12-04T08:48:34;51.50;;;32.57;;
14088;SDS011;7120;52.890;6.040;2022-12-04T08:51:00;51.93;;;31.67;;
14088;SDS011;7120;52.890;6.040;2022-12-04T08:53:25;49.70;;;30.50;;
14088;SDS011;7120;52.890;6.040;2022-12-04T08:55:51;50.77;;;30.37;;
14088;SDS011;7120;52.890;6.040;2022-12-04T08:58:17;52.80;;;31.73;;
14088;SDS011;7120;52.890;6.040;2022-12-04T09:00:44;50.40;;;32.40;;
14088;SDS011;7120;52.890;6.040;2022-12-04T09:03:13;51.20;;;33.33;;
14088;SDS011;7120;52.890;6.040;2022-12-04T09:05:41;54.17;;;33.53;;
14088;SDS011;7120;52.890;6.040;2022-12-04T09:08:09;50.63;;;31.43;;
14088;SDS011;7120;52.890;6.040;2022-12-04T09:10:35;51.80;;;33.10;;
14088;SDS011;7120;52.890;6.040;2022-12-04T09:13:01;52.60;;;32.47;;
14088;SDS011;7120;52.890;6.040;2022-12-04T09:15:26;52.03;;;32.93;;
14088;SDS011;7120;52.890;6.040;2022-12-04T09:17:51;55.37;;;33.77;;
14088;SDS011;7120;52.890;6.040;2022-12-04T09:20:17;53.50;;;33.60;;
14088;SDS011;7120;52.890;6.040;2022-12-04T09:22:42;63.30;;;39.60;;
14088;SDS011;7120;52.890;6.040;2022-12-04T09:25:08;53.10;;;32.27;;
14088;SDS011;7120;52.890;6.040;2022-12-04T09:27:37;51.63;;;32.60;;
14088;SDS011;7120;52.890;6.040;2022-12-04T09:30:05;55.90;;;33.50;;
14088;SDS011;7120;52.890;6.040;2022-12-04T09:32:32;53.67;;;33.50;;
14088;SDS011;7120;52.890;6.040;2022-12-04T09:34:57;52.80;;;31.37;;
14088;SDS011;7120;52.890;6.040;2022-12-04T09:37:22;54.23;;;31.33;;
14088;SDS011;7120;52.890;6.040;2022-12-04T09:39:49;55.53;;;32.90;;
14088;SDS011;7120;52.890;6.040;2022-12-04T09:45:17;54.87;;;32.73;;
14088;SDS011;7120;52.890;6.040;2022-12-04T09:47:53;64.20;;;34.47;;
14088;SDS011;7120;52.890;6.040;2022-12-04T09:50:25;53.43;;;31.60;;
14088;SDS011;7120;52.890;6.040;2022-12-04T09:53:02;55.13;;;34.07;;
14088;SDS011;7120;52.890;6.040;2022-12-04T09:55:50;55.07;;;32.97;;
14088;SDS011;7120;52.890;6.040;2022-12-04T09:58:31;57.33;;;33.23;;
14088;SDS011;7120;52.890;6.040;2022-12-04T10:01:23;53.83;;;33.53;;
14088;SDS011;7120;52.890;6.040;2022-12-04T10:03:53;59.97;;;36.27;;
14088;SDS011;7120;52.890;6.040;2022-12-04T10:06:23;65.13;;;39.70;;
14088;SDS011;7120;52.890;6.040;2022-12-04T10:09:08;53.30;;;33.03;;
14088;SDS011;7120;52.890;6.040;2022-12-04T10:23:04;57.40;;;35.60;;
14088;SDS011;7120;52.890;6.040;2022-12-04T10:25:37;57.00;;;34.63;;
14088;SDS011;7120;52.890;6.040;2022-12-04T10:30:51;56.97;;;36.37;;
14088;SDS011;7120;52.890;6.040;2022-12-04T10:35:54;56.47;;;36.97;;
14088;SDS011;7120;52.890;6.040;2022-12-04T10:41:19;54.10;;;35.93;;
14088;SDS011;7120;52.890;6.040;2022-12-04T10:43:56;44.40;;;29.60;;
14088;SDS011;7120;52.890;6.040;2022-12-04T10:48:56;44.13;;;30.17;;
14088;SDS011;7120;52.890;6.040;2022-12-04T10:51:23;46.30;;;33.23;;
14088;SDS011;7120;52.890;6.040;2022-12-04T10:53:49;42.43;;;31.67;;
14088;SDS011;7120;52.890;6.040;2022-12-04T10:58:42;44.40;;;28.60;;
14088;SDS011;7120;52.890;6.040;2022-12-04T11:01:10;42.93;;;28.93;;
14088;SDS011;7120;52.890;6.040;2022-12-04T11:03:38;40.47;;;28.00;;
14088;SDS011;7120;52.890;6.040;2022-12-04T11:06:08;39.63;;;27.83;;
14088;SDS011;7120;52.890;6.040;2022-12-04T11:08:38;41.37;;;27.27;;
14088;SDS011;7120;52.890;6.040;2022-12-04T11:11:08;39.87;;;26.60;;
14088;SDS011;7120;52.890;6.040;2022-12-04T11:13:36;38.43;;;27.40;;
14088;SDS011;7120;52.890;6.040;2022-12-04T11:16:03;39.67;;;26.63;;
14088;SDS011;7120;52.890;6.040;2022-12-04T11:18:31;38.43;;;27.50;;
14088;SDS011;7120;52.890;6.040;2022-12-04T11:20:59;40.83;;;27.13;;
14088;SDS011;7120;52.890;6.040;2022-12-04T11:23:29;34.70;;;25.70;;
14088;SDS011;7120;52.890;6.040;2022-12-04T11:26:07;37.07;;;26.03;;
14088;SDS011;7120;52.890;6.040;2022-12-04T11:28:33;37.17;;;24.80;;
14088;SDS011;7120;52.890;6.040;2022-12-04T11:31:01;33.50;;;24.00;;
14088;SDS011;7120;52.890;6.040;2022-12-04T11:33:32;36.20;;;25.63;;
14088;SDS011;7120;52.890;6.040;2022-12-04T11:36:02;40.27;;;26.90;;
14088;SDS011;7120;52.890;6.040;2022-12-04T11:38:31;36.73;;;25.63;;
14088;SDS011;7120;52.890;6.040;2022-12-04T11:40:59;36.33;;;24.90;;
14088;SDS011;7120;52.890;6.040;2022-12-04T11:43:28;32.37;;;23.47;;
14088;SDS011;7120;52.890;6.040;2022-12-04T11:45:55;33.47;;;23.77;;
14088;SDS011;7120;52.890;6.040;2022-12-04T11:48:22;33.73;;;23.70;;
14088;SDS011;7120;52.890;6.040;2022-12-04T11:50:53;32.63;;;23.80;;
14088;SDS011;7120;52.890;6.040;2022-12-04T12:05:04;29.17;;;21.17;;
14088;SDS011;7120;52.890;6.040;2022-12-04T12:24:28;24.77;;;17.63;;
14088;SDS011;7120;52.890;6.040;2022-12-04T12:27:03;25.97;;;19.27;;
14088;SDS011;7120;52.890;6.040;2022-12-04T12:29:41;24.23;;;18.70;;
14088;SDS011;7120;52.890;6.040;2022-12-04T12:35:21;24.70;;;16.57;;
14088;SDS011;7120;52.890;6.040;2022-12-04T12:37:55;21.43;;;16.63;;
14088;SDS011;7120;52.890;6.040;2022-12-04T12:40:33;20.80;;;16.47;;
14088;SDS011;7120;52.890;6.040;2022-12-04T12:43:09;22.90;;;17.13;;
14088;SDS011;7120;52.890;6.040;2022-12-04T12:48:29;22.83;;;18.37;;
14088;SDS011;7120;52.890;6.040;2022-12-04T12:51:05;23.77;;;18.50;;
14088;SDS011;7120;52.890;6.040;2022-12-04T12:53:39;24.87;;;19.73;;
14088;SDS011;7120;52.890;6.040;2022-12-04T12:56:09;21.80;;;17.53;;
14088;SDS011;7120;52.890;6.040;2022-12-04T12:58:41;23.33;;;17.93;;
14088;SDS011;7120;52.890;6.040;2022-12-04T13:01:16;24.47;;;19.33;;
14088;SDS011;7120;52.890;6.040;2022-12-04T13:06:27;26.93;;;20.50;;
14088;SDS011;7120;52.890;6.040;2022-12-04T13:11:45;22.30;;;16.53;;
14088;SDS011;7120;52.890;6.040;2022-12-04T13:14:13;25.43;;;17.33;;
14088;SDS011;7120;52.890;6.040;2022-12-04T13:16:56;25.83;;;18.37;;
14088;SDS011;7120;52.890;6.040;2022-12-04T13:19:31;25.20;;;19.23;;
14088;SDS011;7120;52.890;6.040;2022-12-04T13:22:10;23.03;;;17.83;;
14088;SDS011;7120;52.890;6.040;2022-12-04T13:30:43;23.47;;;17.03;;
14088;SDS011;7120;52.890;6.040;2022-12-04T13:33:27;27.27;;;19.27;;
14088;SDS011;7120;52.890;6.040;2022-12-04T13:41:57;24.53;;;17.67;;
14088;SDS011;7120;52.890;6.040;2022-12-04T13:44:25;26.03;;;17.70;;
14088;SDS011;7120;52.890;6.040;2022-12-04T13:47:01;24.00;;;17.10;;
14088;SDS011;7120;52.890;6.040;2022-12-04T13:49:34;24.97;;;17.40;;
14088;SDS011;7120;52.890;6.040;2022-12-04T13:52:03;25.03;;;17.37;;
14088;SDS011;7120;52.890;6.040;2022-12-04T13:54:31;23.53;;;17.70;;
14088;SDS011;7120;52.890;6.040;2022-12-04T13:57:16;27.60;;;17.63;;
14088;SDS011;7120;52.890;6.040;2022-12-04T13:59:45;23.57;;;17.90;;
14088;SDS011;7120;52.890;6.040;2022-12-04T14:07:29;22.63;;;16.40;;
14088;SDS011;7120;52.890;6.040;2022-12-04T14:09:57;23.53;;;16.70;;
14088;SDS011;7120;52.890;6.040;2022-12-04T14:12:32;27.33;;;19.63;;
14088;SDS011;7120;52.890;6.040;2022-12-04T14:15:05;21.33;;;17.07;;
14088;SDS011;7120;52.890;6.040;2022-12-04T14:17:32;23.33;;;16.73;;
14088;SDS011;7120;52.890;6.040;2022-12-04T14:20:01;26.67;;;18.97;;
14088;SDS011;7120;52.890;6.040;2022-12-04T14:25:19;23.87;;;17.53;;
14088;SDS011;7120;52.890;6.040;2022-12-04T14:27:48;24.70;;;18.60;;
14088;SDS011;7120;52.890;6.040;2022-12-04T14:30:28;21.53;;;16.93;;
14088;SDS011;7120;52.890;6.040;2022-12-04T14:35:57;25.63;;;18.80;;
14088;SDS011;7120;52.890;6.040;2022-12-04T14:38:26;23.63;;;18.07;;
14088;SDS011;7120;52.890;6.040;2022-12-04T14:40:52;24.67;;;18.40;;
14088;SDS011;7120;52.890;6.040;2022-12-04T14:43:27;28.57;;;21.17;;
14088;SDS011;7120;52.890;6.040;2022-12-04T14:59:50;24.20;;;17.87;;
14088;SDS011;7120;52.890;6.040;2022-12-04T15:04:54;25.83;;;19.13;;
14088;SDS011;7120;52.890;6.040;2022-12-04T15:07:21;26.10;;;19.50;;
14088;SDS011;7120;52.890;6.040;2022-12-04T15:09:59;24.07;;;17.73;;
14088;SDS011;7120;52.890;6.040;2022-12-04T15:12:49;25.63;;;18.67;;
14088;SDS011;7120;52.890;6.040;2022-12-04T15:15:19;25.37;;;19.37;;
14088;SDS011;7120;52.890;6.040;2022-12-04T15:18:00;25.70;;;19.10;;
14088;SDS011;7120;52.890;6.040;2022-12-04T15:20:31;25.53;;;18.97;;
14088;SDS011;7120;52.890;6.040;2022-12-04T15:23:01;26.07;;;18.03;;
14088;SDS011;7120;52.890;6.040;2022-12-04T15:25:29;24.03;;;18.37;;
14088;SDS011;7120;52.890;6.040;2022-12-04T15:28:05;24.73;;;19.10;;
14088;SDS011;7120;52.890;6.040;2022-12-04T15:30:42;27.37;;;19.07;;
14088;SDS011;7120;52.890;6.040;2022-12-04T15:33:28;22.77;;;16.83;;
14088;SDS011;7120;52.890;6.040;2022-12-04T15:36:05;24.73;;;17.87;;
14088;SDS011;7120;52.890;6.040;2022-12-04T15:38:48;27.90;;;20.40;;
14088;SDS011;7120;52.890;6.040;2022-12-04T15:41:27;26.13;;;19.70;;
14088;SDS011;7120;52.890;6.040;2022-12-04T15:43:55;29.83;;;19.43;;
14088;SDS011;7120;52.890;6.040;2022-12-04T15:46:22;30.57;;;20.03;;
14088;SDS011;7120;52.890;6.040;2022-12-04T15:49:03;28.83;;;20.07;;
14088;SDS011;7120;52.890;6.040;2022-12-04T15:51:29;27.50;;;19.90;;
14088;SDS011;7120;52.890;6.040;2022-12-04T15:53:55;31.07;;;20.73;;
14088;SDS011;7120;52.890;6.040;2022-12-04T15:56:20;33.57;;;22.40;;
14088;SDS011;7120;52.890;6.040;2022-12-04T15:58:56;27.07;;;19.53;;
14088;SDS011;7120;52.890;6.040;2022-12-04T16:01:25;28.30;;;20.60;;
14088;SDS011;7120;52.890;6.040;2022-12-04T16:03:51;29.03;;;20.63;;
14088;SDS011;7120;52.890;6.040;2022-12-04T16:06:23;26.60;;;20.00;;
14088;SDS011;7120;52.890;6.040;2022-12-04T16:08:50;32.70;;;20.60;;
14088;SDS011;7120;52.890;6.040;2022-12-04T16:13:44;30.47;;;21.60;;
14088;SDS011;7120;52.890;6.040;2022-12-04T16:16:14;28.10;;;20.17;;
14088;SDS011;7120;52.890;6.040;2022-12-04T16:18:42;31.63;;;22.10;;
14088;SDS011;7120;52.890;6.040;2022-12-04T16:21:11;29.17;;;19.93;;
14088;SDS011;7120;52.890;6.040;2022-12-04T16:23:40;30.87;;;21.47;;
14088;SDS011;7120;52.890;6.040;2022-12-04T16:26:09;27.40;;;18.73;;
14088;SDS011;7120;52.890;6.040;2022-12-04T16:28:37;30.77;;;21.30;;
14088;SDS011;7120;52.890;6.040;2022-12-04T16:31:02;211.50;;;57.27;;
14088;SDS011;7120;52.890;6.040;2022-12-04T16:33:27;26.73;;;19.00;;
14088;SDS011;7120;52.890;6.040;2022-12-04T16:35:53;31.90;;;21.87;;
14088;SDS011;7120;52.890;6.040;2022-12-04T16:38:18;29.27;;;19.70;;
14088;SDS011;7120;52.890;6.040;2022-12-04T16:40:44;28.73;;;20.10;;
14088;SDS011;7120;52.890;6.040;2022-12-04T16:43:10;26.33;;;18.23;;
14088;SDS011;7120;52.890;6.040;2022-12-04T16:45:37;28.33;;;18.93;;
14088;SDS011;7120;52.890;6.040;2022-12-04T16:48:16;26.33;;;18.80;;
14088;SDS011;7120;52.890;6.040;2022-12-04T16:50:42;25.00;;;17.63;;
14088;SDS011;7120;52.890;6.040;2022-12-04T16:53:11;26.10;;;17.53;;
14088;SDS011;7120;52.890;6.040;2022-12-04T16:55:39;25.70;;;18.37;;
14088;SDS011;7120;52.890;6.040;2022-12-04T16:58:05;23.10;;;17.47;;
14088;SDS011;7120;52.890;6.040;2022-12-04T17:00:31;25.67;;;17.40;;
14088;SDS011;7120;52.890;6.040;2022-12-04T17:02:57;27.40;;;17.80;;
14088;SDS011;7120;52.890;6.040;2022-12-04T17:05:26;28.83;;;18.77;;
14088;SDS011;7120;52.890;6.040;2022-12-04T17:07:53;25.83;;;18.73;;